createdAt,value
2017-10-03T00:00:48.571Z,5.90
2017-10-03T00:03:17.154Z,5.87
2017-10-03T00:05:45.994Z,6.20
2017-10-03T00:08:14.369Z,6.83
2017-10-03T00:10:44.309Z,6.60
2017-10-03T00:13:12.690Z,6.23
2017-10-03T00:15:41.580Z,6.40
2017-10-03T00:18:09.938Z,7.07
2017-10-03T00:20:39.224Z,6.30
2017-10-03T00:23:11.313Z,6.33
2017-10-03T00:25:39.678Z,6.60
2017-10-03T00:28:08.064Z,6.50
2017-10-03T00:30:36.422Z,6.10
2017-10-03T00:33:04.779Z,5.77
2017-10-03T00:35:33.161Z,5.90
2017-10-03T00:38:02.430Z,5.67
2017-10-03T00:53:25.814Z,5.30
2017-10-03T00:55:53.475Z,5.47
2017-10-03T00:58:23.109Z,4.53
2017-10-03T01:00:51.477Z,5.27
2017-10-03T01:03:20.063Z,5.73
2017-10-03T01:05:48.424Z,6.00
2017-10-03T01:08:16.887Z,5.83
2017-10-03T01:10:44.916Z,5.77
2017-10-03T01:13:14.094Z,4.70
2017-10-03T01:15:43.192Z,4.63
2017-10-03T01:18:12.234Z,5.40
2017-10-03T01:20:41.080Z,6.20
2017-10-03T01:23:09.477Z,5.17
2017-10-03T01:25:38.347Z,5.60
2017-10-03T01:28:07.586Z,6.03
2017-10-03T01:30:35.954Z,6.07
2017-10-03T01:33:04.134Z,5.60
2017-10-03T01:35:32.606Z,6.20
2017-10-03T01:38:08.655Z,5.50
2017-10-03T01:40:37.755Z,6.63
2017-10-03T01:43:06.164Z,6.50
2017-10-03T01:45:34.599Z,7.40
2017-10-03T01:48:02.956Z,7.13
2017-10-03T01:50:32.297Z,6.67
2017-10-03T01:53:00.666Z,6.43
2017-10-03T01:55:29.831Z,6.77
2017-10-03T01:57:58.003Z,7.10
2017-10-03T02:00:26.578Z,7.30
2017-10-03T02:02:54.990Z,7.50
2017-10-03T02:05:23.481Z,6.20
2017-10-03T02:07:52.999Z,6.33
2017-10-03T02:10:22.071Z,6.73
2017-10-03T02:12:50.452Z,6.47
2017-10-03T02:15:19.398Z,6.67
2017-10-03T02:17:48.746Z,8.30
2017-10-03T02:20:17.131Z,7.67
2017-10-03T02:22:45.499Z,7.23
2017-10-03T02:25:13.903Z,8.30
2017-10-03T02:27:42.283Z,7.90
2017-10-03T02:30:10.663Z,7.90
2017-10-03T02:32:39.029Z,7.80
2017-10-03T02:35:08.173Z,7.10
2017-10-03T02:37:36.615Z,6.53
2017-10-03T02:40:04.991Z,7.33
2017-10-03T02:42:33.167Z,7.40
2017-10-03T02:45:01.537Z,6.70
2017-10-03T02:47:29.909Z,5.67
2017-10-03T02:49:58.298Z,5.73
2017-10-03T02:52:26.675Z,5.40
2017-10-03T02:54:55.057Z,6.13
2017-10-03T02:57:23.413Z,5.47
2017-10-03T02:59:51.799Z,5.60
2017-10-03T03:02:20.154Z,6.20
2017-10-03T03:04:48.525Z,5.73
2017-10-03T03:07:16.886Z,5.73
2017-10-03T03:09:45.265Z,6.20
2017-10-03T03:12:13.666Z,4.67
2017-10-03T03:14:42.080Z,4.73
2017-10-03T03:17:10.440Z,5.03
2017-10-03T03:19:39.754Z,4.70
2017-10-03T03:22:08.734Z,4.40
2017-10-03T03:24:37.883Z,4.60
2017-10-03T03:27:06.770Z,4.93
2017-10-03T03:29:34.997Z,4.80
2017-10-03T03:32:03.179Z,4.80
2017-10-03T03:34:31.770Z,4.37
2017-10-03T03:37:00.150Z,4.60
2017-10-03T03:39:28.746Z,4.60
2017-10-03T03:41:57.101Z,4.67
2017-10-03T03:44:25.477Z,5.60
2017-10-03T03:46:53.836Z,5.97
2017-10-03T03:49:24.162Z,5.90
2017-10-03T03:51:52.526Z,6.40
2017-10-03T03:54:21.012Z,6.63
2017-10-03T03:56:49.737Z,6.33
2017-10-03T04:08:58.262Z,7.90
2017-10-03T04:11:26.636Z,7.93
2017-10-03T04:13:55.012Z,8.27
2017-10-03T04:16:23.362Z,9.47
2017-10-03T04:18:52.218Z,8.73
2017-10-03T04:21:20.602Z,9.97
2017-10-03T04:23:50.502Z,9.97
2017-10-03T04:26:19.107Z,10.70
2017-10-03T04:28:47.480Z,10.10
2017-10-03T04:31:15.897Z,10.67
2017-10-03T04:33:44.377Z,10.27
2017-10-03T04:36:13.059Z,11.43
2017-10-03T04:38:41.410Z,12.37
2017-10-03T04:41:09.781Z,12.10
2017-10-03T04:43:38.143Z,11.43
2017-10-03T04:46:06.502Z,12.30
2017-10-03T04:48:34.883Z,12.33
2017-10-03T04:51:03.214Z,11.27
2017-10-03T04:53:31.673Z,12.00
2017-10-03T04:55:59.862Z,11.93
2017-10-03T04:58:28.085Z,12.80
2017-10-03T05:00:57.347Z,13.10
2017-10-03T05:03:25.761Z,14.30
2017-10-03T05:05:54.126Z,13.60
2017-10-03T05:08:22.483Z,14.70
2017-10-03T05:10:50.867Z,16.10
2017-10-03T05:13:19.242Z,14.97
2017-10-03T05:15:47.601Z,17.60
2017-10-03T05:18:15.966Z,14.63
2017-10-03T05:20:44.570Z,16.10
2017-10-03T05:23:13.532Z,14.97
2017-10-03T05:25:41.754Z,16.30
2017-10-03T05:28:10.682Z,14.83
2017-10-03T05:30:39.043Z,16.70
2017-10-03T05:33:08.370Z,15.43
2017-10-03T05:35:37.471Z,15.87
2017-10-03T05:38:05.851Z,15.00
2017-10-03T05:40:34.215Z,15.33
2017-10-03T05:43:02.577Z,13.77
2017-10-03T05:45:30.940Z,12.90
2017-10-03T05:47:59.311Z,13.40
2017-10-03T05:50:27.691Z,13.50
2017-10-03T05:52:56.045Z,11.80
2017-10-03T05:55:24.430Z,12.73
2017-10-03T05:57:52.799Z,12.27
2017-10-03T06:00:21.353Z,11.40
2017-10-03T06:02:49.716Z,11.30
2017-10-03T06:05:18.092Z,10.33
2017-10-03T06:07:46.450Z,10.40
2017-10-03T06:10:14.827Z,10.07
2017-10-03T06:12:43.197Z,9.53
2017-10-03T06:15:11.554Z,9.10
2017-10-03T06:17:39.931Z,8.20
2017-10-03T06:20:08.367Z,8.20
2017-10-03T06:22:36.773Z,7.87
2017-10-03T06:25:05.148Z,8.33
2017-10-03T06:27:33.530Z,7.37
2017-10-03T06:30:01.916Z,7.60
2017-10-03T06:32:30.310Z,7.00
2017-10-03T06:34:58.891Z,6.87
2017-10-03T06:37:28.035Z,6.97
2017-10-03T06:39:56.412Z,6.67
2017-10-03T06:42:24.842Z,5.93
2017-10-03T06:44:53.352Z,5.33
2017-10-03T06:47:21.729Z,5.10
2017-10-03T06:49:50.148Z,5.30
2017-10-03T06:52:18.965Z,5.57
2017-10-03T06:54:47.180Z,5.50
2017-10-03T06:57:16.426Z,5.23
2017-10-03T06:59:44.819Z,5.23
2017-10-03T07:02:13.434Z,5.33
2017-10-03T07:04:41.826Z,5.33
2017-10-03T07:07:10.370Z,5.70
2017-10-03T07:09:38.723Z,5.93
2017-10-03T07:12:07.115Z,6.10
2017-10-03T07:14:35.470Z,5.90
2017-10-03T07:17:04.150Z,4.90
2017-10-03T07:19:32.526Z,6.70
2017-10-03T07:22:00.903Z,5.90
2017-10-03T07:24:29.830Z,5.43
2017-10-03T07:26:58.311Z,6.17
2017-10-03T07:29:26.740Z,6.47
2017-10-03T07:31:55.119Z,5.97
2017-10-03T07:34:24.419Z,7.30
2017-10-03T07:36:52.860Z,6.57
2017-10-03T07:39:22.856Z,6.57
2017-10-03T07:41:51.741Z,6.50
2017-10-03T07:44:21.228Z,6.97
2017-10-03T07:46:51.139Z,6.97
2017-10-03T07:49:19.528Z,7.10
2017-10-03T07:51:47.701Z,6.70
2017-10-03T07:54:16.080Z,7.23
2017-10-03T07:56:44.621Z,6.73
2017-10-03T07:59:12.989Z,6.97
2017-10-03T08:01:41.468Z,6.50
2017-10-03T08:04:09.934Z,7.20
2017-10-03T08:06:38.295Z,7.63
2017-10-03T08:09:06.688Z,7.40
2017-10-03T08:11:35.104Z,6.60
2017-10-03T08:14:03.543Z,7.30
2017-10-03T08:16:32.037Z,7.10
2017-10-03T08:19:00.227Z,7.30
2017-10-03T08:21:28.591Z,7.60
2017-10-03T08:23:57.111Z,6.97
2017-10-03T08:26:25.489Z,7.10
2017-10-03T08:28:53.854Z,7.03
2017-10-03T08:31:22.690Z,7.70
2017-10-03T08:33:51.043Z,6.50
2017-10-03T08:36:20.194Z,6.37
2017-10-03T08:38:49.112Z,7.70
2017-10-03T08:41:17.633Z,7.83
2017-10-03T08:43:46.221Z,6.60
2017-10-03T08:46:14.594Z,7.80
2017-10-03T08:48:43.273Z,6.83
2017-10-03T08:51:11.637Z,6.83
2017-10-03T08:53:40.035Z,7.13
2017-10-03T08:56:08.610Z,7.40
2017-10-03T08:58:37.009Z,8.17
2017-10-03T09:01:05.590Z,7.70
2017-10-03T09:03:34.867Z,7.60
2017-10-03T09:06:03.235Z,7.50
2017-10-03T09:08:31.615Z,7.73
2017-10-03T09:11:00.822Z,7.43
2017-10-03T09:13:29.195Z,7.90
2017-10-03T09:15:57.566Z,7.47
2017-10-03T09:18:25.943Z,7.40
2017-10-03T09:20:54.146Z,7.70
2017-10-03T09:23:22.583Z,7.50
2017-10-03T09:25:50.942Z,6.27
2017-10-03T09:28:20.082Z,7.33
2017-10-03T09:30:48.637Z,6.73
2017-10-03T09:33:17.320Z,7.90
2017-10-03T09:35:45.679Z,7.90
2017-10-03T09:38:14.074Z,7.80
2017-10-03T09:40:43.290Z,8.87
2017-10-03T09:43:11.951Z,8.53
2017-10-03T09:45:40.313Z,8.53
2017-10-03T09:48:08.695Z,8.10
2017-10-03T09:50:37.896Z,7.70
2017-10-03T09:53:07.108Z,8.53
2017-10-03T09:55:35.648Z,7.57
2017-10-03T09:58:04.846Z,7.10
2017-10-03T10:00:33.451Z,7.33
2017-10-03T10:03:02.276Z,7.97
2017-10-03T10:05:30.646Z,7.63
2017-10-03T10:07:59.987Z,7.90
2017-10-03T10:10:28.344Z,8.67
2017-10-03T10:12:56.734Z,7.93
2017-10-03T10:15:25.871Z,8.37
2017-10-03T10:17:55.150Z,7.83
2017-10-03T10:20:24.438Z,7.40
2017-10-03T10:22:52.796Z,8.00
2017-10-03T10:25:22.684Z,6.83
2017-10-03T10:27:51.062Z,7.60
2017-10-03T10:30:19.489Z,8.03
2017-10-03T10:32:47.868Z,6.77
2017-10-03T10:35:16.236Z,7.10
2017-10-03T10:37:45.168Z,7.60
2017-10-03T10:40:13.605Z,6.77
2017-10-03T10:42:42.085Z,6.20
2017-10-03T10:45:10.474Z,5.97
2017-10-03T10:47:38.838Z,5.63
2017-10-03T10:50:07.479Z,5.50
2017-10-03T10:52:35.854Z,4.80
2017-10-03T10:55:05.000Z,5.20
2017-10-03T10:57:34.802Z,4.40
2017-10-03T11:00:03.379Z,4.40
2017-10-03T11:02:31.804Z,4.37
2017-10-03T11:05:00.183Z,4.30
2017-10-03T11:07:28.556Z,4.20
2017-10-03T11:09:57.187Z,3.93
2017-10-03T11:12:25.593Z,3.67
2017-10-03T11:14:53.991Z,5.33
2017-10-03T11:17:22.352Z,3.60
2017-10-03T11:19:50.726Z,3.80
2017-10-03T11:22:19.173Z,3.50
2017-10-03T11:24:47.846Z,3.17
2017-10-03T11:27:16.259Z,3.47
2017-10-03T11:29:44.659Z,3.80
2017-10-03T11:32:13.017Z,3.23
2017-10-03T11:34:41.414Z,3.43
2017-10-03T11:37:09.784Z,3.07
2017-10-03T11:39:38.169Z,3.30
2017-10-03T11:42:06.547Z,3.30
2017-10-03T11:44:34.914Z,3.03
2017-10-03T11:47:03.414Z,3.90
2017-10-03T11:49:31.782Z,3.20
2017-10-03T11:52:00.338Z,3.20
2017-10-03T11:54:28.724Z,2.97
2017-10-03T11:56:57.090Z,3.30
2017-10-03T11:59:25.444Z,2.90
2017-10-03T12:01:53.813Z,2.60
2017-10-03T12:04:23.132Z,2.77
2017-10-03T12:06:51.497Z,3.00
2017-10-03T12:09:20.052Z,3.30
2017-10-03T12:11:48.433Z,3.10
2017-10-03T12:14:16.598Z,2.90
2017-10-03T12:16:45.186Z,3.07
2017-10-03T12:19:13.536Z,2.93
2017-10-03T12:21:42.676Z,3.13
2017-10-03T12:24:11.084Z,3.43
2017-10-03T12:26:39.451Z,3.10
2017-10-03T12:29:08.555Z,2.50
2017-10-03T12:31:37.504Z,2.73
2017-10-03T12:34:06.756Z,2.53
2017-10-03T12:36:36.088Z,3.00
2017-10-03T12:39:04.331Z,3.07
2017-10-03T12:41:32.711Z,3.43
2017-10-03T12:44:01.074Z,2.90
2017-10-03T12:46:30.227Z,2.87
2017-10-03T12:48:58.606Z,2.67
2017-10-03T12:51:26.971Z,2.67
2017-10-03T12:53:55.363Z,3.00
2017-10-03T12:56:25.503Z,3.00
2017-10-03T12:58:53.921Z,3.97
2017-10-03T13:01:22.441Z,2.93
2017-10-03T13:03:50.823Z,2.70
2017-10-03T13:06:19.188Z,3.43
2017-10-03T13:08:47.555Z,3.00
2017-10-03T13:11:15.946Z,3.13
2017-10-03T13:13:44.489Z,2.80
2017-10-03T13:16:13.067Z,3.20
2017-10-03T13:18:41.508Z,3.10
2017-10-03T13:21:10.023Z,3.30
2017-10-03T13:23:38.370Z,3.50
2017-10-03T13:26:06.764Z,3.43
2017-10-03T13:28:35.139Z,3.60
2017-10-03T13:31:03.533Z,3.20
2017-10-03T13:33:32.014Z,3.47
2017-10-03T13:36:00.484Z,3.93
2017-10-03T13:38:28.855Z,3.23
2017-10-03T13:40:57.246Z,3.03
2017-10-03T13:43:27.255Z,2.73
2017-10-03T13:45:55.958Z,3.40
2017-10-03T13:48:24.409Z,3.00
2017-10-03T13:50:52.845Z,3.07
2017-10-03T13:53:21.995Z,3.80
2017-10-03T13:55:50.862Z,3.27
2017-10-03T13:58:19.244Z,2.70
2017-10-03T14:00:47.629Z,3.10
2017-10-03T14:03:16.103Z,3.10
2017-10-03T14:05:44.679Z,3.70
2017-10-03T14:08:13.044Z,3.53
2017-10-03T14:10:41.432Z,3.10
2017-10-03T14:13:09.834Z,2.70
2017-10-03T14:15:38.213Z,2.93
2017-10-03T14:18:06.598Z,3.10
2017-10-03T14:20:34.987Z,3.40
2017-10-03T14:23:04.143Z,4.10
2017-10-03T14:25:32.677Z,3.00
2017-10-03T14:28:02.270Z,3.50
2017-10-03T14:30:30.620Z,3.50
2017-10-03T14:32:59.004Z,3.37
2017-10-03T14:35:27.650Z,3.27
2017-10-03T14:37:56.146Z,3.30
2017-10-03T14:40:24.734Z,3.20
2017-10-03T14:42:53.673Z,3.37
2017-10-03T14:45:22.870Z,3.33
2017-10-03T14:47:51.243Z,2.90
2017-10-03T14:50:19.610Z,3.30
2017-10-03T14:52:48.002Z,2.70
2017-10-03T14:55:17.278Z,3.03
2017-10-03T14:57:46.298Z,3.60
2017-10-03T15:00:14.671Z,3.30
2017-10-03T15:02:43.891Z,3.00
2017-10-03T15:05:12.248Z,3.30
2017-10-03T15:07:41.809Z,3.40
2017-10-03T15:10:10.181Z,4.17
2017-10-03T15:12:38.712Z,3.13
2017-10-03T15:15:07.194Z,3.50
2017-10-03T15:17:35.671Z,3.70
2017-10-03T15:20:05.233Z,4.07
2017-10-03T15:22:33.757Z,3.70
2017-10-03T15:25:02.132Z,3.07
2017-10-03T15:27:32.188Z,4.10
2017-10-03T15:30:00.557Z,3.87
2017-10-03T15:32:29.202Z,4.67
2017-10-03T15:34:58.810Z,4.77
2017-10-03T15:37:28.206Z,3.87
2017-10-03T15:39:56.715Z,4.10
2017-10-03T15:42:25.963Z,4.40
2017-10-03T15:44:55.180Z,3.73
2017-10-03T15:47:23.560Z,3.93
2017-10-03T15:49:52.848Z,4.10
2017-10-03T15:52:21.224Z,3.77
2017-10-03T15:54:49.911Z,3.60
2017-10-03T15:57:18.289Z,3.80
2017-10-03T15:59:46.685Z,3.63
2017-10-03T16:02:15.976Z,3.90
2017-10-03T16:04:44.732Z,4.40
2017-10-03T16:07:13.158Z,4.10
2017-10-03T16:09:41.804Z,3.87
2017-10-03T16:12:10.179Z,3.70
2017-10-03T16:14:38.864Z,3.87
2017-10-03T16:17:07.307Z,3.73
2017-10-03T16:19:36.454Z,4.20
2017-10-03T16:22:04.844Z,3.90
2017-10-03T16:24:34.220Z,4.40
2017-10-03T16:27:02.938Z,4.13
2017-10-03T16:29:32.038Z,4.13
2017-10-03T16:32:00.469Z,4.00
2017-10-03T16:34:28.891Z,4.30
2017-10-03T16:36:58.955Z,3.90
2017-10-03T16:39:27.536Z,3.47
2017-10-03T16:41:56.919Z,4.00
2017-10-03T16:44:25.304Z,4.40
2017-10-03T16:46:53.683Z,4.50
2017-10-03T16:49:22.270Z,4.83
2017-10-03T16:51:50.647Z,4.30
2017-10-03T16:54:19.026Z,4.30
2017-10-03T16:56:47.544Z,4.40
2017-10-03T16:59:16.088Z,4.00
2017-10-03T17:01:44.462Z,4.27
2017-10-03T17:04:12.974Z,4.03
2017-10-03T17:06:41.367Z,4.80
2017-10-03T17:09:09.727Z,4.20
2017-10-03T17:11:39.612Z,4.27
2017-10-03T17:14:08.003Z,4.47
2017-10-03T17:16:36.405Z,4.70
2017-10-03T17:19:04.791Z,4.83
2017-10-03T17:21:33.930Z,4.40
2017-10-03T17:24:02.308Z,4.20
2017-10-03T17:26:30.878Z,4.30
2017-10-03T17:28:59.289Z,4.80
2017-10-03T17:31:27.659Z,4.97
2017-10-03T17:33:56.604Z,5.03
2017-10-03T17:36:25.933Z,5.50
2017-10-03T17:38:54.606Z,4.77
2017-10-03T17:41:23.076Z,4.93
2017-10-03T17:43:51.447Z,5.37
2017-10-03T17:46:19.908Z,5.37
2017-10-03T17:48:48.362Z,5.20
2017-10-03T17:51:16.766Z,5.07
2017-10-03T17:53:45.974Z,5.60
2017-10-03T17:56:14.390Z,5.43
2017-10-03T17:58:42.847Z,5.87
2017-10-03T18:01:12.159Z,5.93
2017-10-03T18:03:40.586Z,5.27
2017-10-03T18:06:08.998Z,5.30
2017-10-03T18:08:37.408Z,5.50
2017-10-03T18:11:05.778Z,5.60
2017-10-03T18:13:34.156Z,5.60
2017-10-03T18:16:02.800Z,5.73
2017-10-03T18:18:31.179Z,5.10
2017-10-03T18:20:59.560Z,5.43
2017-10-03T18:23:28.041Z,4.80
2017-10-03T18:25:56.411Z,5.30
2017-10-03T18:28:24.792Z,5.17
2017-10-03T18:30:53.212Z,4.67
2017-10-03T18:33:22.356Z,5.40
2017-10-03T18:35:50.782Z,4.87
2017-10-03T18:38:20.663Z,4.83
2017-10-03T18:40:49.223Z,4.80
2017-10-03T18:43:17.584Z,4.80
2017-10-03T18:45:46.050Z,4.80
2017-10-03T18:48:14.418Z,5.70
2017-10-03T18:50:42.803Z,4.77
2017-10-03T18:53:11.214Z,4.43
2017-10-03T18:55:39.579Z,4.37
2017-10-03T18:58:08.160Z,4.10
2017-10-03T19:00:36.521Z,4.43
2017-10-03T19:03:05.525Z,4.43
2017-10-03T19:05:33.879Z,4.30
2017-10-03T19:08:02.274Z,3.90
2017-10-03T19:10:30.658Z,4.30
2017-10-03T19:12:59.095Z,4.23
2017-10-03T19:15:27.558Z,4.03
2017-10-03T19:17:55.934Z,3.83
2017-10-03T19:20:26.001Z,4.10
2017-10-03T19:22:54.385Z,4.33
2017-10-03T19:25:22.773Z,3.93
2017-10-03T19:27:51.140Z,4.40
2017-10-03T19:30:20.451Z,4.20
2017-10-03T19:32:48.909Z,3.90
2017-10-03T19:35:17.487Z,3.83
2017-10-03T19:37:46.066Z,3.53
2017-10-03T19:40:14.791Z,4.07
2017-10-03T19:42:43.156Z,5.90
2017-10-03T19:45:12.393Z,4.10
2017-10-03T19:47:42.184Z,3.80
2017-10-03T19:50:10.545Z,4.03
2017-10-03T19:52:38.909Z,3.80
2017-10-03T19:55:07.282Z,4.43
2017-10-03T19:57:36.332Z,4.00
2017-10-03T20:00:04.692Z,4.63
2017-10-03T20:02:33.143Z,5.07
2017-10-03T20:05:01.681Z,4.50
2017-10-03T20:07:31.603Z,4.77
2017-10-03T20:09:59.982Z,4.30
2017-10-03T20:12:28.351Z,4.33
2017-10-03T20:14:56.921Z,4.67
2017-10-03T20:17:26.094Z,4.40
2017-10-03T20:19:55.870Z,4.03
2017-10-03T20:22:24.376Z,4.57
2017-10-03T20:24:54.027Z,4.60
2017-10-03T20:27:22.412Z,4.33
2017-10-03T20:29:52.526Z,4.57
2017-10-03T20:45:15.938Z,4.00
2017-10-03T20:47:45.015Z,5.53
2017-10-03T20:50:13.927Z,4.40
2017-10-03T20:52:42.807Z,4.67
2017-10-03T20:55:12.166Z,4.40
2017-10-03T20:57:40.551Z,5.23
2017-10-03T21:00:09.721Z,4.80
2017-10-03T21:02:37.976Z,4.93
2017-10-03T21:05:07.276Z,5.50
2017-10-03T21:07:35.709Z,5.40
2017-10-03T21:10:04.103Z,5.80
2017-10-03T21:12:32.553Z,5.57
2017-10-03T21:15:00.942Z,5.00
2017-10-03T21:17:29.336Z,4.93
2017-10-03T21:19:57.913Z,5.60
2017-10-03T21:22:26.325Z,4.90
2017-10-03T21:24:54.689Z,4.73
2017-10-03T21:27:23.070Z,5.93
2017-10-03T21:29:51.444Z,6.53
2017-10-03T21:32:19.955Z,5.77
2017-10-03T21:34:48.476Z,6.00
2017-10-03T21:37:17.935Z,6.37
2017-10-03T21:39:49.842Z,5.50
2017-10-03T21:42:29.283Z,5.90
2017-10-03T21:44:57.681Z,5.70
2017-10-03T21:47:25.925Z,5.90
2017-10-03T21:49:54.504Z,5.00
2017-10-03T21:52:23.024Z,5.87
2017-10-03T21:54:51.409Z,6.40
2017-10-03T21:57:19.936Z,6.30
2017-10-03T21:59:48.394Z,6.43
2017-10-03T22:02:16.790Z,6.30
2017-10-03T22:04:45.146Z,5.90
2017-10-03T22:07:13.667Z,5.80
2017-10-03T22:09:42.032Z,5.50
2017-10-03T22:12:10.399Z,5.90
2017-10-03T22:14:38.778Z,6.33
2017-10-03T22:17:07.161Z,5.90
2017-10-03T22:19:35.587Z,6.00
2017-10-03T22:22:03.961Z,5.80
2017-10-03T22:24:33.311Z,5.43
2017-10-03T22:27:01.682Z,5.97
2017-10-03T22:29:30.054Z,6.10
2017-10-03T22:31:59.299Z,6.10
2017-10-03T22:34:27.655Z,5.77
2017-10-03T22:36:56.035Z,5.60
2017-10-03T22:39:24.420Z,6.03
2017-10-03T22:41:53.575Z,5.50
2017-10-03T22:44:21.921Z,6.50
2017-10-03T22:46:51.054Z,5.87
2017-10-03T22:49:19.367Z,5.40
2017-10-03T22:51:53.856Z,5.70
2017-10-03T22:54:23.165Z,7.00
2017-10-03T22:56:52.223Z,6.40
2017-10-03T22:59:20.577Z,6.00
2017-10-03T23:01:48.614Z,6.33
2017-10-03T23:04:16.981Z,5.83
2017-10-03T23:06:45.601Z,5.80
2017-10-03T23:09:13.963Z,5.90
2017-10-03T23:11:42.331Z,6.30
2017-10-03T23:14:10.700Z,5.53
2017-10-03T23:16:39.709Z,5.80
2017-10-03T23:19:08.065Z,5.60
2017-10-03T23:21:36.443Z,6.03
2017-10-03T23:24:04.872Z,6.13
2017-10-03T23:26:34.474Z,6.20
2017-10-03T23:29:03.634Z,5.90
2017-10-03T23:31:32.156Z,5.47
2017-10-03T23:34:00.521Z,6.40
2017-10-03T23:36:29.205Z,5.47
2017-10-03T23:38:57.597Z,4.90
2017-10-03T23:41:26.005Z,5.47
2017-10-03T23:43:54.406Z,5.90
2017-10-03T23:46:22.765Z,5.80
2017-10-03T23:48:51.143Z,5.53
2017-10-03T23:51:19.562Z,6.23
2017-10-03T23:53:48.564Z,5.13
2017-10-03T23:56:17.237Z,5.17
2017-10-03T23:58:46.244Z,5.47
